sensor_id;sensor_type;location;lat;lon;timestamp;P1;durP1;ratioP1;P2;durP2;ratioP2
65533;SDS011;53640;55.838;37.184;2022-12-04T00:00:42;23.40;;;11.65;;
65533;SDS011;53640;55.838;37.184;2022-12-04T00:03:08;27.80;;;13.07;;
65533;SDS011;53640;55.838;37.184;2022-12-04T00:05:34;26.80;;;12.02;;
65533;SDS011;53640;55.838;37.184;2022-12-04T00:08:01;29.95;;;14.10;;
65533;SDS011;53640;55.838;37.184;2022-12-04T00:10:28;28.73;;;12.45;;
65533;SDS011;53640;55.838;37.184;2022-12-04T00:12:54;23.13;;;11.23;;
65533;SDS011;53640;55.838;37.184;2022-12-04T00:15:20;27.45;;;13.80;;
65533;SDS011;53640;55.838;37.184;2022-12-04T00:17:47;25.58;;;13.35;;
65533;SDS011;53640;55.838;37.184;2022-12-04T00:20:14;29.60;;;13.45;;
65533;SDS011;53640;55.838;37.184;2022-12-04T00:22:40;31.23;;;14.73;;
65533;SDS011;53640;55.838;37.184;2022-12-04T00:25:06;26.10;;;12.55;;
65533;SDS011;53640;55.838;37.184;2022-12-04T00:27:33;25.45;;;13.18;;
65533;SDS011;53640;55.838;37.184;2022-12-04T00:29:59;24.52;;;11.73;;
65533;SDS011;53640;55.838;37.184;2022-12-04T00:32:25;23.45;;;11.20;;
65533;SDS011;53640;55.838;37.184;2022-12-04T00:34:52;23.98;;;12.43;;
65533;SDS011;53640;55.838;37.184;2022-12-04T00:37:18;23.63;;;12.45;;
65533;SDS011;53640;55.838;37.184;2022-12-04T00:39:44;21.73;;;11.40;;
65533;SDS011;53640;55.838;37.184;2022-12-04T00:42:11;21.48;;;11.00;;
65533;SDS011;53640;55.838;37.184;2022-12-04T00:44:37;21.52;;;10.18;;
65533;SDS011;53640;55.838;37.184;2022-12-04T00:47:03;25.65;;;12.35;;
65533;SDS011;53640;55.838;37.184;2022-12-04T00:49:29;26.88;;;12.95;;
65533;SDS011;53640;55.838;37.184;2022-12-04T00:51:56;23.13;;;11.55;;
65533;SDS011;53640;55.838;37.184;2022-12-04T00:54:22;22.38;;;11.18;;
65533;SDS011;53640;55.838;37.184;2022-12-04T00:56:48;19.58;;;9.73;;
65533;SDS011;53640;55.838;37.184;2022-12-04T00:59:14;25.23;;;12.68;;
65533;SDS011;53640;55.838;37.184;2022-12-04T01:01:41;27.25;;;14.13;;
65533;SDS011;53640;55.838;37.184;2022-12-04T01:04:07;22.20;;;11.07;;
65533;SDS011;53640;55.838;37.184;2022-12-04T01:06:33;20.65;;;10.40;;
65533;SDS011;53640;55.838;37.184;2022-12-04T01:09:02;20.75;;;10.43;;
65533;SDS011;53640;55.838;37.184;2022-12-04T01:11:29;21.17;;;10.98;;
65533;SDS011;53640;55.838;37.184;2022-12-04T01:13:57;21.23;;;11.82;;
65533;SDS011;53640;55.838;37.184;2022-12-04T01:16:27;24.60;;;12.30;;
65533;SDS011;53640;55.838;37.184;2022-12-04T01:18:55;25.17;;;12.25;;
65533;SDS011;53640;55.838;37.184;2022-12-04T01:21:21;25.15;;;12.00;;
65533;SDS011;53640;55.838;37.184;2022-12-04T01:23:48;29.50;;;12.00;;
65533;SDS011;53640;55.838;37.184;2022-12-04T01:26:14;24.58;;;12.30;;
65533;SDS011;53640;55.838;37.184;2022-12-04T01:28:41;26.02;;;12.40;;
65533;SDS011;53640;55.838;37.184;2022-12-04T01:31:09;23.67;;;11.30;;
65533;SDS011;53640;55.838;37.184;2022-12-04T01:33:38;28.25;;;13.48;;
65533;SDS011;53640;55.838;37.184;2022-12-04T01:36:07;24.85;;;11.30;;
65533;SDS011;53640;55.838;37.184;2022-12-04T01:38:35;25.08;;;11.45;;
65533;SDS011;53640;55.838;37.184;2022-12-04T01:41:02;24.08;;;12.02;;
65533;SDS011;53640;55.838;37.184;2022-12-04T01:43:30;22.35;;;11.70;;
65533;SDS011;53640;55.838;37.184;2022-12-04T01:45:59;19.02;;;9.93;;
65533;SDS011;53640;55.838;37.184;2022-12-04T01:51:18;22.13;;;10.93;;
65533;SDS011;53640;55.838;37.184;2022-12-04T01:53:49;19.02;;;9.57;;
65533;SDS011;53640;55.838;37.184;2022-12-04T01:56:20;24.35;;;11.40;;
65533;SDS011;53640;55.838;37.184;2022-12-04T01:58:51;17.70;;;9.40;;
65533;SDS011;53640;55.838;37.184;2022-12-04T02:01:21;17.63;;;9.05;;
65533;SDS011;53640;55.838;37.184;2022-12-04T02:03:48;20.73;;;9.20;;
65533;SDS011;53640;55.838;37.184;2022-12-04T02:06:15;24.27;;;10.90;;
65533;SDS011;53640;55.838;37.184;2022-12-04T02:08:41;23.45;;;10.93;;
65533;SDS011;53640;55.838;37.184;2022-12-04T02:13:56;20.33;;;9.27;;
65533;SDS011;53640;55.838;37.184;2022-12-04T02:21:52;18.27;;;8.70;;
65533;SDS011;53640;55.838;37.184;2022-12-04T02:29:38;17.48;;;8.80;;
65533;SDS011;53640;55.838;37.184;2022-12-04T02:37:12;20.65;;;9.88;;
65533;SDS011;53640;55.838;37.184;2022-12-04T02:39:56;17.05;;;8.07;;
65533;SDS011;53640;55.838;37.184;2022-12-04T02:45:26;20.80;;;9.35;;
65533;SDS011;53640;55.838;37.184;2022-12-04T02:47:57;25.45;;;10.43;;
65533;SDS011;53640;55.838;37.184;2022-12-04T02:50:27;20.92;;;9.55;;
65533;SDS011;53640;55.838;37.184;2022-12-04T02:53:06;20.17;;;9.50;;
65533;SDS011;53640;55.838;37.184;2022-12-04T02:56:04;19.02;;;8.95;;
65533;SDS011;53640;55.838;37.184;2022-12-04T02:58:43;21.92;;;9.85;;
65533;SDS011;53640;55.838;37.184;2022-12-04T03:01:12;20.00;;;9.65;;
65533;SDS011;53640;55.838;37.184;2022-12-04T03:03:50;18.92;;;8.98;;
65533;SDS011;53640;55.838;37.184;2022-12-04T03:06:23;18.98;;;9.48;;
65533;SDS011;53640;55.838;37.184;2022-12-04T03:09:00;23.85;;;10.43;;
65533;SDS011;53640;55.838;37.184;2022-12-04T03:11:33;21.75;;;9.23;;
65533;SDS011;53640;55.838;37.184;2022-12-04T03:14:47;21.48;;;9.20;;
65533;SDS011;53640;55.838;37.184;2022-12-04T03:17:12;20.27;;;9.32;;
65533;SDS011;53640;55.838;37.184;2022-12-04T03:19:53;21.33;;;8.80;;
65533;SDS011;53640;55.838;37.184;2022-12-04T03:22:24;19.35;;;9.30;;
65533;SDS011;53640;55.838;37.184;2022-12-04T03:24:52;23.17;;;10.38;;
65533;SDS011;53640;55.838;37.184;2022-12-04T03:32:48;25.85;;;9.98;;
65533;SDS011;53640;55.838;37.184;2022-12-04T03:35:25;17.33;;;8.55;;
65533;SDS011;53640;55.838;37.184;2022-12-04T03:43:38;22.80;;;9.43;;
65533;SDS011;53640;55.838;37.184;2022-12-04T03:49:20;18.05;;;8.65;;
65533;SDS011;53640;55.838;37.184;2022-12-04T03:51:57;20.05;;;8.95;;
65533;SDS011;53640;55.838;37.184;2022-12-04T03:54:34;21.00;;;8.05;;
65533;SDS011;53640;55.838;37.184;2022-12-04T03:57:17;20.10;;;8.05;;
65533;SDS011;53640;55.838;37.184;2022-12-04T03:59:49;20.90;;;8.10;;
65533;SDS011;53640;55.838;37.184;2022-12-04T04:02:24;14.00;;;7.05;;
65533;SDS011;53640;55.838;37.184;2022-12-04T04:04:55;17.23;;;8.23;;
65533;SDS011;53640;55.838;37.184;2022-12-04T04:07:25;17.42;;;8.52;;
65533;SDS011;53640;55.838;37.184;2022-12-04T04:09:58;19.30;;;9.02;;
65533;SDS011;53640;55.838;37.184;2022-12-04T04:12:34;22.48;;;9.10;;
65533;SDS011;53640;55.838;37.184;2022-12-04T04:15:08;21.08;;;8.95;;
65533;SDS011;53640;55.838;37.184;2022-12-04T04:17:56;18.20;;;8.55;;
65533;SDS011;53640;55.838;37.184;2022-12-04T04:20:43;21.33;;;9.73;;
65533;SDS011;53640;55.838;37.184;2022-12-04T04:23:35;22.92;;;9.65;;
65533;SDS011;53640;55.838;37.184;2022-12-04T04:26:24;23.30;;;8.90;;
65533;SDS011;53640;55.838;37.184;2022-12-04T04:28:52;17.52;;;8.77;;
65533;SDS011;53640;55.838;37.184;2022-12-04T04:31:21;21.50;;;9.23;;
65533;SDS011;53640;55.838;37.184;2022-12-04T04:34:04;20.52;;;9.35;;
65533;SDS011;53640;55.838;37.184;2022-12-04T04:36:50;13.93;;;6.72;;
65533;SDS011;53640;55.838;37.184;2022-12-04T04:39:36;17.95;;;8.18;;
65533;SDS011;53640;55.838;37.184;2022-12-04T04:42:13;17.40;;;7.85;;
65533;SDS011;53640;55.838;37.184;2022-12-04T04:44:48;18.17;;;8.05;;
65533;SDS011;53640;55.838;37.184;2022-12-04T04:47:42;21.02;;;9.02;;
65533;SDS011;53640;55.838;37.184;2022-12-04T04:50:08;18.83;;;7.63;;
65533;SDS011;53640;55.838;37.184;2022-12-04T04:52:37;22.55;;;8.68;;
65533;SDS011;53640;55.838;37.184;2022-12-04T04:55:09;20.17;;;8.52;;
65533;SDS011;53640;55.838;37.184;2022-12-04T04:57:37;18.92;;;8.18;;
65533;SDS011;53640;55.838;37.184;2022-12-04T05:00:07;18.88;;;7.95;;
65533;SDS011;53640;55.838;37.184;2022-12-04T05:02:37;18.45;;;7.32;;
65533;SDS011;53640;55.838;37.184;2022-12-04T05:05:03;18.42;;;8.95;;
65533;SDS011;53640;55.838;37.184;2022-12-04T05:07:30;19.48;;;9.25;;
65533;SDS011;53640;55.838;37.184;2022-12-04T05:09:57;17.20;;;7.95;;
65533;SDS011;53640;55.838;37.184;2022-12-04T05:12:23;20.73;;;8.55;;
65533;SDS011;53640;55.838;37.184;2022-12-04T05:14:49;16.60;;;8.30;;
65533;SDS011;53640;55.838;37.184;2022-12-04T05:17:16;18.38;;;8.40;;
65533;SDS011;53640;55.838;37.184;2022-12-04T05:19:42;16.55;;;8.25;;
65533;SDS011;53640;55.838;37.184;2022-12-04T05:22:26;22.73;;;9.38;;
65533;SDS011;53640;55.838;37.184;2022-12-04T05:24:59;17.98;;;8.85;;
65533;SDS011;53640;55.838;37.184;2022-12-04T05:27:27;19.33;;;8.25;;
65533;SDS011;53640;55.838;37.184;2022-12-04T05:29:55;21.30;;;9.43;;
65533;SDS011;53640;55.838;37.184;2022-12-04T05:32:24;22.05;;;8.85;;
65533;SDS011;53640;55.838;37.184;2022-12-04T05:34:55;21.20;;;9.38;;
65533;SDS011;53640;55.838;37.184;2022-12-04T05:37:25;20.27;;;9.27;;
65533;SDS011;53640;55.838;37.184;2022-12-04T05:39:52;25.50;;;9.18;;
65533;SDS011;53640;55.838;37.184;2022-12-04T05:42:18;16.45;;;7.90;;
65533;SDS011;53640;55.838;37.184;2022-12-04T05:44:45;19.20;;;9.40;;
65533;SDS011;53640;55.838;37.184;2022-12-04T05:47:13;20.75;;;9.00;;
65533;SDS011;53640;55.838;37.184;2022-12-04T05:49:40;18.33;;;8.10;;
65533;SDS011;53640;55.838;37.184;2022-12-04T05:52:06;19.50;;;8.38;;
65533;SDS011;53640;55.838;37.184;2022-12-04T05:54:32;20.63;;;8.68;;
65533;SDS011;53640;55.838;37.184;2022-12-04T05:56:59;16.55;;;7.85;;
65533;SDS011;53640;55.838;37.184;2022-12-04T06:00:20;15.45;;;6.93;;
65533;SDS011;53640;55.838;37.184;2022-12-04T06:02:46;20.83;;;9.48;;
65533;SDS011;53640;55.838;37.184;2022-12-04T06:05:13;23.20;;;8.30;;
65533;SDS011;53640;55.838;37.184;2022-12-04T06:07:42;18.60;;;8.23;;
65533;SDS011;53640;55.838;37.184;2022-12-04T06:10:08;21.90;;;8.88;;
65533;SDS011;53640;55.838;37.184;2022-12-04T06:12:34;19.67;;;8.77;;
65533;SDS011;53640;55.838;37.184;2022-12-04T06:15:01;16.23;;;7.57;;
65533;SDS011;53640;55.838;37.184;2022-12-04T06:17:30;20.40;;;8.82;;
65533;SDS011;53640;55.838;37.184;2022-12-04T06:19:56;19.35;;;8.80;;
65533;SDS011;53640;55.838;37.184;2022-12-04T06:22:23;19.05;;;8.43;;
65533;SDS011;53640;55.838;37.184;2022-12-04T06:24:49;18.45;;;7.90;;
65533;SDS011;53640;55.838;37.184;2022-12-04T06:27:15;16.10;;;7.78;;
65533;SDS011;53640;55.838;37.184;2022-12-04T06:29:41;17.40;;;7.78;;
65533;SDS011;53640;55.838;37.184;2022-12-04T06:32:08;18.88;;;8.75;;
65533;SDS011;53640;55.838;37.184;2022-12-04T06:34:34;18.38;;;9.18;;
65533;SDS011;53640;55.838;37.184;2022-12-04T06:37:01;17.52;;;8.10;;
65533;SDS011;53640;55.838;37.184;2022-12-04T06:39:28;21.70;;;9.27;;
65533;SDS011;53640;55.838;37.184;2022-12-04T06:41:54;20.02;;;8.00;;
65533;SDS011;53640;55.838;37.184;2022-12-04T06:44:20;15.57;;;7.35;;
65533;SDS011;53640;55.838;37.184;2022-12-04T06:46:47;16.58;;;7.75;;
65533;SDS011;53640;55.838;37.184;2022-12-04T06:49:14;23.08;;;8.95;;
65533;SDS011;53640;55.838;37.184;2022-12-04T06:51:40;16.05;;;7.20;;
65533;SDS011;53640;55.838;37.184;2022-12-04T06:54:06;22.45;;;7.25;;
65533;SDS011;53640;55.838;37.184;2022-12-04T06:56:34;19.23;;;7.15;;
65533;SDS011;53640;55.838;37.184;2022-12-04T06:59:01;17.88;;;8.27;;
65533;SDS011;53640;55.838;37.184;2022-12-04T07:01:29;18.17;;;8.45;;
65533;SDS011;53640;55.838;37.184;2022-12-04T07:03:57;13.95;;;6.82;;
65533;SDS011;53640;55.838;37.184;2022-12-04T07:06:30;14.88;;;7.22;;
65533;SDS011;53640;55.838;37.184;2022-12-04T07:08:58;13.93;;;6.78;;
65533;SDS011;53640;55.838;37.184;2022-12-04T07:11:25;18.85;;;8.18;;
65533;SDS011;53640;55.838;37.184;2022-12-04T07:13:53;15.70;;;7.85;;
65533;SDS011;53640;55.838;37.184;2022-12-04T07:16:20;14.98;;;6.93;;
65533;SDS011;53640;55.838;37.184;2022-12-04T07:18:48;12.30;;;5.55;;
65533;SDS011;53640;55.838;37.184;2022-12-04T07:21:22;17.02;;;6.97;;
65533;SDS011;53640;55.838;37.184;2022-12-04T07:23:53;16.65;;;7.07;;
65533;SDS011;53640;55.838;37.184;2022-12-04T07:26:22;19.48;;;7.55;;
65533;SDS011;53640;55.838;37.184;2022-12-04T07:28:49;14.40;;;7.05;;
65533;SDS011;53640;55.838;37.184;2022-12-04T07:31:17;14.07;;;6.25;;
65533;SDS011;53640;55.838;37.184;2022-12-04T07:33:45;13.27;;;6.28;;
65533;SDS011;53640;55.838;37.184;2022-12-04T07:36:14;14.63;;;5.97;;
65533;SDS011;53640;55.838;37.184;2022-12-04T07:38:42;10.27;;;5.97;;
65533;SDS011;53640;55.838;37.184;2022-12-04T07:41:09;17.15;;;6.65;;
65533;SDS011;53640;55.838;37.184;2022-12-04T07:43:37;11.77;;;6.05;;
65533;SDS011;53640;55.838;37.184;2022-12-04T07:46:05;13.43;;;6.88;;
65533;SDS011;53640;55.838;37.184;2022-12-04T07:48:33;12.48;;;6.30;;
65533;SDS011;53640;55.838;37.184;2022-12-04T07:51:01;13.52;;;6.38;;
65533;SDS011;53640;55.838;37.184;2022-12-04T07:53:29;11.57;;;6.28;;
65533;SDS011;53640;55.838;37.184;2022-12-04T07:55:55;19.83;;;7.60;;
65533;SDS011;53640;55.838;37.184;2022-12-04T07:58:21;14.38;;;6.50;;
65533;SDS011;53640;55.838;37.184;2022-12-04T08:00:47;12.25;;;6.43;;
65533;SDS011;53640;55.838;37.184;2022-12-04T08:03:14;11.48;;;5.65;;
65533;SDS011;53640;55.838;37.184;2022-12-04T08:05:40;14.40;;;6.35;;
65533;SDS011;53640;55.838;37.184;2022-12-04T08:08:06;12.70;;;6.38;;
65533;SDS011;53640;55.838;37.184;2022-12-04T08:10:33;14.90;;;6.38;;
65533;SDS011;53640;55.838;37.184;2022-12-04T08:12:59;12.68;;;5.65;;
65533;SDS011;53640;55.838;37.184;2022-12-04T08:15:25;16.10;;;7.20;;
65533;SDS011;53640;55.838;37.184;2022-12-04T08:17:51;16.83;;;6.50;;
65533;SDS011;53640;55.838;37.184;2022-12-04T08:20:18;13.60;;;5.78;;
65533;SDS011;53640;55.838;37.184;2022-12-04T08:22:44;11.95;;;5.72;;
65533;SDS011;53640;55.838;37.184;2022-12-04T08:25:10;11.52;;;5.28;;
65533;SDS011;53640;55.838;37.184;2022-12-04T08:27:36;15.23;;;5.97;;
65533;SDS011;53640;55.838;37.184;2022-12-04T08:30:03;10.88;;;5.72;;
65533;SDS011;53640;55.838;37.184;2022-12-04T08:32:30;20.70;;;6.97;;
65533;SDS011;53640;55.838;37.184;2022-12-04T08:34:56;12.20;;;6.40;;
65533;SDS011;53640;55.838;37.184;2022-12-04T08:37:22;10.00;;;5.63;;
65533;SDS011;53640;55.838;37.184;2022-12-04T08:39:49;13.48;;;6.78;;
65533;SDS011;53640;55.838;37.184;2022-12-04T08:42:15;16.25;;;7.63;;
65533;SDS011;53640;55.838;37.184;2022-12-04T08:44:41;15.02;;;6.65;;
65533;SDS011;53640;55.838;37.184;2022-12-04T08:47:07;14.50;;;6.20;;
65533;SDS011;53640;55.838;37.184;2022-12-04T08:49:34;14.32;;;6.75;;
65533;SDS011;53640;55.838;37.184;2022-12-04T08:52:00;11.52;;;6.03;;
65533;SDS011;53640;55.838;37.184;2022-12-04T08:54:26;15.88;;;7.35;;
65533;SDS011;53640;55.838;37.184;2022-12-04T08:56:53;13.18;;;5.88;;
65533;SDS011;53640;55.838;37.184;2022-12-04T08:59:19;11.15;;;5.03;;
65533;SDS011;53640;55.838;37.184;2022-12-04T09:01:48;13.00;;;5.85;;
65533;SDS011;53640;55.838;37.184;2022-12-04T09:04:15;20.42;;;6.68;;
65533;SDS011;53640;55.838;37.184;2022-12-04T09:06:41;10.25;;;5.25;;
65533;SDS011;53640;55.838;37.184;2022-12-04T09:09:08;11.90;;;5.80;;
65533;SDS011;53640;55.838;37.184;2022-12-04T09:11:34;9.30;;;5.20;;
65533;SDS011;53640;55.838;37.184;2022-12-04T09:14:01;12.15;;;5.63;;
65533;SDS011;53640;55.838;37.184;2022-12-04T09:16:28;11.23;;;5.38;;
65533;SDS011;53640;55.838;37.184;2022-12-04T09:18:55;14.48;;;5.68;;
65533;SDS011;53640;55.838;37.184;2022-12-04T09:21:22;21.23;;;5.78;;
65533;SDS011;53640;55.838;37.184;2022-12-04T09:23:49;10.23;;;5.35;;
65533;SDS011;53640;55.838;37.184;2022-12-04T09:28:50;14.27;;;5.82;;
65533;SDS011;53640;55.838;37.184;2022-12-04T09:31:18;11.82;;;4.90;;
65533;SDS011;53640;55.838;37.184;2022-12-04T09:33:45;11.63;;;5.50;;
65533;SDS011;53640;55.838;37.184;2022-12-04T09:36:12;12.98;;;5.53;;
65533;SDS011;53640;55.838;37.184;2022-12-04T09:38:41;11.07;;;5.25;;
65533;SDS011;53640;55.838;37.184;2022-12-04T09:41:14;9.80;;;5.28;;
65533;SDS011;53640;55.838;37.184;2022-12-04T09:44:15;9.15;;;4.80;;
65533;SDS011;53640;55.838;37.184;2022-12-04T09:52:23;10.68;;;4.10;;
65533;SDS011;53640;55.838;37.184;2022-12-04T09:55:08;9.38;;;4.72;;
65533;SDS011;53640;55.838;37.184;2022-12-04T09:57:49;11.55;;;4.68;;
65533;SDS011;53640;55.838;37.184;2022-12-04T10:00:18;9.70;;;4.63;;
65533;SDS011;53640;55.838;37.184;2022-12-04T10:03:13;8.32;;;4.47;;
65533;SDS011;53640;55.838;37.184;2022-12-04T10:08:24;9.93;;;5.25;;
65533;SDS011;53640;55.838;37.184;2022-12-04T10:19:36;7.32;;;3.78;;
65533;SDS011;53640;55.838;37.184;2022-12-04T10:22:24;7.65;;;4.28;;
65533;SDS011;53640;55.838;37.184;2022-12-04T10:25:17;9.37;;;3.70;;
65533;SDS011;53640;55.838;37.184;2022-12-04T10:30:43;8.20;;;3.90;;
65533;SDS011;53640;55.838;37.184;2022-12-04T10:33:27;9.18;;;3.85;;
65533;SDS011;53640;55.838;37.184;2022-12-04T10:36:00;8.07;;;3.88;;
65533;SDS011;53640;55.838;37.184;2022-12-04T10:38:38;7.80;;;4.20;;
65533;SDS011;53640;55.838;37.184;2022-12-04T10:44:03;10.80;;;4.65;;
65533;SDS011;53640;55.838;37.184;2022-12-04T10:46:30;7.53;;;3.80;;
65533;SDS011;53640;55.838;37.184;2022-12-04T10:49:02;6.90;;;3.30;;
65533;SDS011;53640;55.838;37.184;2022-12-04T10:51:42;10.80;;;4.10;;
65533;SDS011;53640;55.838;37.184;2022-12-04T10:54:18;6.53;;;3.22;;
65533;SDS011;53640;55.838;37.184;2022-12-04T10:56:59;6.72;;;3.20;;
65533;SDS011;53640;55.838;37.184;2022-12-04T10:59:28;5.88;;;3.47;;
65533;SDS011;53640;55.838;37.184;2022-12-04T11:07:43;10.88;;;3.70;;
65533;SDS011;53640;55.838;37.184;2022-12-04T11:10:28;7.05;;;3.70;;
65533;SDS011;53640;55.838;37.184;2022-12-04T11:13:01;8.25;;;4.00;;
65533;SDS011;53640;55.838;37.184;2022-12-04T11:15:28;5.00;;;3.00;;
65533;SDS011;53640;55.838;37.184;2022-12-04T11:18:05;11.32;;;3.50;;
65533;SDS011;53640;55.838;37.184;2022-12-04T11:20:33;5.32;;;3.40;;
65533;SDS011;53640;55.838;37.184;2022-12-04T11:23:00;6.53;;;3.03;;
65533;SDS011;53640;55.838;37.184;2022-12-04T11:25:29;5.72;;;3.38;;
65533;SDS011;53640;55.838;37.184;2022-12-04T11:28:11;11.70;;;3.85;;
65533;SDS011;53640;55.838;37.184;2022-12-04T11:30:53;5.45;;;2.92;;
65533;SDS011;53640;55.838;37.184;2022-12-04T11:33:29;6.80;;;3.60;;
65533;SDS011;53640;55.838;37.184;2022-12-04T11:36:22;9.77;;;3.90;;
65533;SDS011;53640;55.838;37.184;2022-12-04T11:38:53;9.02;;;3.33;;
65533;SDS011;53640;55.838;37.184;2022-12-04T11:41:57;9.40;;;3.50;;
65533;SDS011;53640;55.838;37.184;2022-12-04T11:44:29;5.50;;;3.05;;
65533;SDS011;53640;55.838;37.184;2022-12-04T11:46:58;9.77;;;3.85;;
65533;SDS011;53640;55.838;37.184;2022-12-04T11:49:27;6.63;;;3.40;;
65533;SDS011;53640;55.838;37.184;2022-12-04T11:55:01;9.40;;;3.63;;
65533;SDS011;53640;55.838;37.184;2022-12-04T12:00:19;8.60;;;3.53;;
65533;SDS011;53640;55.838;37.184;2022-12-04T12:11:21;10.60;;;4.13;;
65533;SDS011;53640;55.838;37.184;2022-12-04T12:16:57;7.13;;;3.63;;
65533;SDS011;53640;55.838;37.184;2022-12-04T12:22:18;10.15;;;3.72;;
65533;SDS011;53640;55.838;37.184;2022-12-04T12:35:26;9.55;;;3.42;;
65533;SDS011;53640;55.838;37.184;2022-12-04T12:38:24;12.70;;;4.28;;
65533;SDS011;53640;55.838;37.184;2022-12-04T12:40:56;9.82;;;4.28;;
65533;SDS011;53640;55.838;37.184;2022-12-04T12:45:58;18.10;;;3.92;;
65533;SDS011;53640;55.838;37.184;2022-12-04T12:51:36;6.93;;;3.58;;
65533;SDS011;53640;55.838;37.184;2022-12-04T12:57:11;7.88;;;3.28;;
65533;SDS011;53640;55.838;37.184;2022-12-04T12:59:45;5.45;;;3.15;;
65533;SDS011;53640;55.838;37.184;2022-12-04T13:04:54;7.68;;;3.72;;
65533;SDS011;53640;55.838;37.184;2022-12-04T13:07:30;7.88;;;3.38;;
65533;SDS011;53640;55.838;37.184;2022-12-04T13:10:19;7.45;;;3.25;;
65533;SDS011;53640;55.838;37.184;2022-12-04T13:12:59;9.20;;;3.15;;
65533;SDS011;53640;55.838;37.184;2022-12-04T13:15:40;10.07;;;3.13;;
65533;SDS011;53640;55.838;37.184;2022-12-04T13:18:08;6.50;;;3.28;;
65533;SDS011;53640;55.838;37.184;2022-12-04T13:20:50;11.23;;;3.33;;
65533;SDS011;53640;55.838;37.184;2022-12-04T13:26:18;14.32;;;3.53;;
65533;SDS011;53640;55.838;37.184;2022-12-04T13:34:02;12.48;;;3.90;;
65533;SDS011;53640;55.838;37.184;2022-12-04T13:36:56;12.05;;;3.85;;
65533;SDS011;53640;55.838;37.184;2022-12-04T13:40:14;6.82;;;3.47;;
65533;SDS011;53640;55.838;37.184;2022-12-04T13:42:48;7.63;;;3.47;;
65533;SDS011;53640;55.838;37.184;2022-12-04T13:45:26;5.50;;;3.35;;
65533;SDS011;53640;55.838;37.184;2022-12-04T13:47:59;9.38;;;3.67;;
65533;SDS011;53640;55.838;37.184;2022-12-04T13:50:31;13.05;;;4.18;;
65533;SDS011;53640;55.838;37.184;2022-12-04T13:53:02;11.02;;;3.72;;
65533;SDS011;53640;55.838;37.184;2022-12-04T13:58:40;9.52;;;3.40;;
65533;SDS011;53640;55.838;37.184;2022-12-04T14:06:25;8.63;;;3.92;;
65533;SDS011;53640;55.838;37.184;2022-12-04T14:08:59;7.75;;;3.75;;
65533;SDS011;53640;55.838;37.184;2022-12-04T14:11:28;6.18;;;3.70;;
65533;SDS011;53640;55.838;37.184;2022-12-04T14:14:14;6.82;;;3.58;;
65533;SDS011;53640;55.838;37.184;2022-12-04T14:16:48;11.45;;;4.35;;
65533;SDS011;53640;55.838;37.184;2022-12-04T14:19:26;6.38;;;3.80;;
65533;SDS011;53640;55.838;37.184;2022-12-04T14:21:57;11.32;;;4.00;;
65533;SDS011;53640;55.838;37.184;2022-12-04T14:30:27;9.68;;;4.50;;
65533;SDS011;53640;55.838;37.184;2022-12-04T14:33:29;6.32;;;3.30;;
65533;SDS011;53640;55.838;37.184;2022-12-04T14:36:15;15.52;;;3.92;;
65533;SDS011;53640;55.838;37.184;2022-12-04T14:39:29;6.57;;;3.50;;
65533;SDS011;53640;55.838;37.184;2022-12-04T14:48:44;7.50;;;3.50;;
65533;SDS011;53640;55.838;37.184;2022-12-04T14:51:42;8.15;;;3.90;;
65533;SDS011;53640;55.838;37.184;2022-12-04T14:58:25;9.65;;;3.47;;
65533;SDS011;53640;55.838;37.184;2022-12-04T15:01:53;9.95;;;4.20;;
65533;SDS011;53640;55.838;37.184;2022-12-04T15:04:52;7.68;;;3.85;;
65533;SDS011;53640;55.838;37.184;2022-12-04T15:07:43;15.85;;;4.00;;
65533;SDS011;53640;55.838;37.184;2022-12-04T15:10:57;10.30;;;3.72;;
65533;SDS011;53640;55.838;37.184;2022-12-04T15:18:27;11.75;;;3.47;;
65533;SDS011;53640;55.838;37.184;2022-12-04T15:21:10;7.47;;;3.20;;
65533;SDS011;53640;55.838;37.184;2022-12-04T15:23:41;8.18;;;3.75;;
65533;SDS011;53640;55.838;37.184;2022-12-04T15:27:04;8.85;;;3.80;;
65533;SDS011;53640;55.838;37.184;2022-12-04T15:29:38;12.07;;;3.50;;
65533;SDS011;53640;55.838;37.184;2022-12-04T15:32:13;7.47;;;3.70;;
65533;SDS011;53640;55.838;37.184;2022-12-04T15:39:41;7.63;;;3.80;;
65533;SDS011;53640;55.838;37.184;2022-12-04T15:44:51;8.60;;;3.80;;
65533;SDS011;53640;55.838;37.184;2022-12-04T15:47:36;8.02;;;4.28;;
65533;SDS011;53640;55.838;37.184;2022-12-04T15:55:35;5.40;;;3.83;;
65533;SDS011;53640;55.838;37.184;2022-12-04T15:58:07;9.98;;;3.70;;
65533;SDS011;53640;55.838;37.184;2022-12-04T16:00:43;7.97;;;4.18;;
65533;SDS011;53640;55.838;37.184;2022-12-04T16:06:04;9.27;;;4.38;;
65533;SDS011;53640;55.838;37.184;2022-12-04T16:09:17;11.23;;;4.10;;
65533;SDS011;53640;55.838;37.184;2022-12-04T16:11:55;11.30;;;4.30;;
65533;SDS011;53640;55.838;37.184;2022-12-04T16:14:42;14.00;;;4.35;;
65533;SDS011;53640;55.838;37.184;2022-12-04T16:17:09;10.07;;;4.60;;
65533;SDS011;53640;55.838;37.184;2022-12-04T16:19:38;8.77;;;3.95;;
65533;SDS011;53640;55.838;37.184;2022-12-04T16:22:11;12.63;;;4.63;;
65533;SDS011;53640;55.838;37.184;2022-12-04T16:24:39;14.07;;;4.97;;
65533;SDS011;53640;55.838;37.184;2022-12-04T16:27:13;14.68;;;4.68;;
65533;SDS011;53640;55.838;37.184;2022-12-04T16:29:45;10.25;;;4.93;;
65533;SDS011;53640;55.838;37.184;2022-12-04T16:32:13;9.95;;;4.72;;
65533;SDS011;53640;55.838;37.184;2022-12-04T16:34:42;11.65;;;4.05;;
65533;SDS011;53640;55.838;37.184;2022-12-04T16:37:19;13.07;;;4.68;;
65533;SDS011;53640;55.838;37.184;2022-12-04T16:39:47;18.48;;;4.80;;
65533;SDS011;53640;55.838;37.184;2022-12-04T16:42:18;9.80;;;4.43;;
65533;SDS011;53640;55.838;37.184;2022-12-04T16:44:47;14.20;;;4.75;;
65533;SDS011;53640;55.838;37.184;2022-12-04T16:47:15;10.32;;;4.80;;
65533;SDS011;53640;55.838;37.184;2022-12-04T16:49:42;16.65;;;5.30;;
65533;SDS011;53640;55.838;37.184;2022-12-04T16:52:10;19.60;;;5.53;;
65533;SDS011;53640;55.838;37.184;2022-12-04T16:54:37;14.07;;;4.72;;
65533;SDS011;53640;55.838;37.184;2022-12-04T16:57:05;12.60;;;4.70;;
65533;SDS011;53640;55.838;37.184;2022-12-04T16:59:32;15.63;;;4.78;;
65533;SDS011;53640;55.838;37.184;2022-12-04T17:01:59;13.40;;;4.78;;
65533;SDS011;53640;55.838;37.184;2022-12-04T17:04:26;12.65;;;4.90;;
65533;SDS011;53640;55.838;37.184;2022-12-04T17:06:52;14.32;;;4.85;;
65533;SDS011;53640;55.838;37.184;2022-12-04T17:09:19;12.45;;;4.43;;
65533;SDS011;53640;55.838;37.184;2022-12-04T17:11:45;15.00;;;5.32;;
65533;SDS011;53640;55.838;37.184;2022-12-04T17:14:11;13.07;;;4.25;;
65533;SDS011;53640;55.838;37.184;2022-12-04T17:16:39;14.05;;;4.53;;
65533;SDS011;53640;55.838;37.184;2022-12-04T17:19:08;11.13;;;4.93;;
65533;SDS011;53640;55.838;37.184;2022-12-04T17:21:35;10.20;;;4.78;;
65533;SDS011;53640;55.838;37.184;2022-12-04T17:24:02;8.27;;;4.25;;
65533;SDS011;53640;55.838;37.184;2022-12-04T17:26:29;11.30;;;4.85;;
65533;SDS011;53640;55.838;37.184;2022-12-04T17:28:55;10.65;;;4.53;;
65533;SDS011;53640;55.838;37.184;2022-12-04T17:31:22;9.55;;;4.30;;
65533;SDS011;53640;55.838;37.184;2022-12-04T17:33:50;12.02;;;4.18;;
65533;SDS011;53640;55.838;37.184;2022-12-04T17:36:20;6.85;;;3.70;;
65533;SDS011;53640;55.838;37.184;2022-12-04T17:41:22;13.90;;;5.13;;